createdAt,value
2022-11-26T00:00:57.411Z,5.87
2022-11-26T00:03:25.515Z,5.85
2022-11-26T00:05:57.023Z,5.95
2022-11-26T00:08:30.418Z,5.89
2022-11-26T00:10:58.753Z,5.89
2022-11-26T00:13:30.957Z,5.83
2022-11-26T00:15:58.823Z,5.87
2022-11-26T00:18:27.356Z,5.84
2022-11-26T00:21:00.697Z,5.81
2022-11-26T00:23:29.875Z,5.74
2022-11-26T00:25:59.470Z,5.77
2022-11-26T00:28:31.414Z,5.73
2022-11-26T00:31:01.355Z,5.71
2022-11-26T00:33:30.094Z,5.74
2022-11-26T00:36:00.395Z,5.72
2022-11-26T00:38:29.022Z,5.56
2022-11-26T00:40:56.992Z,5.57
2022-11-26T00:43:24.782Z,5.45
2022-11-26T00:45:54.016Z,5.40
2022-11-26T00:48:21.853Z,5.33
2022-11-26T00:50:51.864Z,5.31
2022-11-26T00:53:23.508Z,5.36
2022-11-26T00:55:51.872Z,5.31
2022-11-26T00:58:26.189Z,5.30
2022-11-26T01:00:56.923Z,5.30
2022-11-26T01:03:25.124Z,5.37
2022-11-26T01:05:54.565Z,5.35
2022-11-26T01:08:29.764Z,5.38
2022-11-26T01:10:57.767Z,5.41
2022-11-26T01:13:26.253Z,5.47
2022-11-26T01:15:56.581Z,5.51
2022-11-26T01:18:25.075Z,5.52
2022-11-26T01:20:52.910Z,5.56
2022-11-26T01:23:21.640Z,5.60
2022-11-26T01:25:49.595Z,5.62
2022-11-26T01:28:19.832Z,5.59
2022-11-26T01:30:47.910Z,5.61
2022-11-26T01:33:17.039Z,5.58
2022-11-26T01:35:44.857Z,5.64
2022-11-26T01:38:15.100Z,5.65
2022-11-26T01:40:56.024Z,5.65
2022-11-26T01:43:27.939Z,5.69
2022-11-26T01:45:56.316Z,5.66
2022-11-26T01:48:29.257Z,5.66
2022-11-26T01:51:02.504Z,5.69
2022-11-26T01:53:46.953Z,5.71
2022-11-26T01:56:28.450Z,5.66
2022-11-26T01:59:01.798Z,5.77
2022-11-26T02:01:29.746Z,5.74
2022-11-26T02:04:11.184Z,5.65
2022-11-26T02:06:39.654Z,5.70
2022-11-26T02:09:10.546Z,5.64
2022-11-26T02:11:39.523Z,5.63
2022-11-26T02:14:10.362Z,5.59
2022-11-26T02:17:05.717Z,5.54
2022-11-26T02:20:04.561Z,5.64
2022-11-26T02:22:59.183Z,5.67
2022-11-26T02:25:39.154Z,5.74
2022-11-26T02:28:35.440Z,5.79
2022-11-26T02:31:10.682Z,5.70
2022-11-26T02:33:51.795Z,5.77
2022-11-26T02:36:25.395Z,5.79
2022-11-26T02:38:53.888Z,5.89
2022-11-26T02:41:21.766Z,5.74
2022-11-26T02:43:49.805Z,5.49
2022-11-26T02:46:21.082Z,5.54
2022-11-26T02:48:52.968Z,5.62
2022-11-26T02:51:24.601Z,5.59
2022-11-26T02:53:53.496Z,5.67
2022-11-26T02:56:23.654Z,5.77
2022-11-26T02:58:53.448Z,5.79
2022-11-26T03:01:29.374Z,5.76
2022-11-26T03:04:01.983Z,5.78
2022-11-26T03:06:33.874Z,5.85
2022-11-26T03:09:02.040Z,5.74
2022-11-26T03:11:29.911Z,5.75
2022-11-26T03:13:57.767Z,5.62
2022-11-26T03:16:27.043Z,5.64
2022-11-26T03:18:54.842Z,5.73
2022-11-26T03:21:22.655Z,5.70
2022-11-26T03:23:50.420Z,5.61
2022-11-26T03:26:18.204Z,5.62
2022-11-26T03:28:46.034Z,5.58
2022-11-26T03:31:13.882Z,5.65
2022-11-26T03:33:43.145Z,5.71
2022-11-26T03:36:11.048Z,5.72
2022-11-26T03:38:38.814Z,5.75
2022-11-26T03:41:06.781Z,5.82
2022-11-26T03:43:34.716Z,5.82
2022-11-26T03:46:02.534Z,5.77
2022-11-26T03:48:30.326Z,5.81
2022-11-26T03:50:59.465Z,5.84
2022-11-26T03:53:27.460Z,5.82
2022-11-26T03:55:55.233Z,5.76
2022-11-26T03:58:23.099Z,5.73
2022-11-26T04:00:50.932Z,5.56
2022-11-26T04:03:18.707Z,5.70
2022-11-26T04:05:46.552Z,5.70
2022-11-26T04:08:15.672Z,5.80
2022-11-26T04:10:44.551Z,5.78
2022-11-26T04:13:12.293Z,5.72
2022-11-26T04:15:41.146Z,5.78
2022-11-26T04:18:09.060Z,5.74
2022-11-26T04:20:36.819Z,5.71
2022-11-26T04:23:04.563Z,5.78
2022-11-26T04:25:33.684Z,5.86
2022-11-26T04:28:01.504Z,5.83
2022-11-26T04:30:30.107Z,5.86
2022-11-26T04:32:57.979Z,5.74
2022-11-26T04:35:25.835Z,5.73
2022-11-26T04:37:53.590Z,5.77
2022-11-26T04:40:21.868Z,5.76
2022-11-26T04:42:50.992Z,5.72
2022-11-26T04:45:18.993Z,5.64
2022-11-26T04:47:46.802Z,5.64
2022-11-26T04:50:14.562Z,5.67
2022-11-26T04:52:42.317Z,5.72
2022-11-26T04:55:10.741Z,5.65
2022-11-26T04:57:38.474Z,5.54
2022-11-26T05:00:09.378Z,5.48
2022-11-26T05:02:37.204Z,5.47
2022-11-26T05:05:05.243Z,5.59
2022-11-26T05:07:33.213Z,5.64
2022-11-26T05:10:01.215Z,5.64
2022-11-26T05:12:28.971Z,5.66
2022-11-26T05:14:56.710Z,5.74
2022-11-26T05:17:25.859Z,5.80
2022-11-26T05:19:53.651Z,5.85
2022-11-26T05:22:21.482Z,5.83
2022-11-26T05:24:49.323Z,5.82
2022-11-26T05:27:17.105Z,5.79
2022-11-26T05:29:45.132Z,5.73
2022-11-26T05:32:12.918Z,5.69
2022-11-26T05:34:42.033Z,5.58
2022-11-26T05:37:10.068Z,5.58
2022-11-26T05:39:37.832Z,5.45
2022-11-26T05:42:09.373Z,5.63
2022-11-26T05:44:38.028Z,5.58
2022-11-26T05:47:06.177Z,5.74
2022-11-26T05:49:33.996Z,5.71
2022-11-26T05:52:03.173Z,5.78
2022-11-26T05:54:30.914Z,5.75
2022-11-26T05:57:00.401Z,5.79
2022-11-26T05:59:28.752Z,5.86
2022-11-26T06:01:56.724Z,5.78
2022-11-26T06:04:24.688Z,5.73
2022-11-26T06:06:53.028Z,5.88
2022-11-26T06:09:22.296Z,6.45
2022-11-26T06:11:50.513Z,6.62
2022-11-26T06:14:18.692Z,6.34
2022-11-26T06:16:46.632Z,6.21
2022-11-26T06:19:14.606Z,6.38
2022-11-26T06:21:42.393Z,5.94
2022-11-26T06:24:10.182Z,5.82
2022-11-26T06:26:42.295Z,6.17
2022-11-26T06:29:10.108Z,5.95
2022-11-26T06:31:37.961Z,7.03
2022-11-26T06:34:05.848Z,6.65
2022-11-26T06:36:33.648Z,6.39
2022-11-26T06:39:01.388Z,6.46
2022-11-26T06:41:29.159Z,6.76
2022-11-26T06:43:59.751Z,6.58
2022-11-26T06:46:27.569Z,6.55
2022-11-26T06:48:55.458Z,6.63
2022-11-26T06:51:27.643Z,6.83
2022-11-26T06:53:55.655Z,6.70
2022-11-26T06:56:23.431Z,7.21
2022-11-26T06:58:54.960Z,7.48
2022-11-26T07:01:25.971Z,7.10
2022-11-26T07:03:54.551Z,6.94
2022-11-26T07:06:24.017Z,6.78
2022-11-26T07:08:53.901Z,6.44
2022-11-26T07:11:22.356Z,6.16
2022-11-26T07:13:50.161Z,6.34
2022-11-26T07:16:18.109Z,6.65
2022-11-26T07:18:50.876Z,6.50
2022-11-26T07:21:19.885Z,6.15
2022-11-26T07:23:48.786Z,5.71
2022-11-26T07:26:17.752Z,5.85
2022-11-26T07:28:47.239Z,6.15
2022-11-26T07:31:17.311Z,6.02
2022-11-26T07:33:45.949Z,5.90
2022-11-26T07:36:17.464Z,6.51
2022-11-26T07:38:45.375Z,6.66
2022-11-26T07:41:15.082Z,6.50
2022-11-26T07:43:44.028Z,6.21
2022-11-26T07:46:17.101Z,6.65
2022-11-26T07:48:45.533Z,7.49
2022-11-26T07:51:20.191Z,7.57
2022-11-26T07:53:48.135Z,7.51
2022-11-26T07:56:16.370Z,8.04
2022-11-26T07:58:44.226Z,8.17
2022-11-26T08:01:14.621Z,7.90
2022-11-26T08:03:45.959Z,7.30
2022-11-26T08:06:16.082Z,7.26
2022-11-26T08:08:45.315Z,6.87
2022-11-26T08:11:15.823Z,6.34
2022-11-26T08:13:44.409Z,6.24
2022-11-26T08:16:12.777Z,6.24
2022-11-26T08:18:41.199Z,5.97
2022-11-26T08:21:09.237Z,5.79
2022-11-26T08:23:37.427Z,6.16
2022-11-26T08:26:23.763Z,6.46
2022-11-26T08:28:52.068Z,6.96
2022-11-26T08:31:21.284Z,6.77
2022-11-26T08:33:49.198Z,6.94
2022-11-26T08:36:17.342Z,6.73
2022-11-26T08:38:45.204Z,6.49
2022-11-26T08:41:14.925Z,6.81
2022-11-26T08:46:31.722Z,7.52
2022-11-26T08:48:59.598Z,7.77
2022-11-26T08:51:27.479Z,7.82
2022-11-26T08:53:55.245Z,7.98
2022-11-26T08:56:26.651Z,8.12
2022-11-26T08:58:54.458Z,7.75
2022-11-26T09:01:24.463Z,7.96
2022-11-26T09:03:54.244Z,7.33
2022-11-26T09:06:23.781Z,7.58
2022-11-26T09:09:09.469Z,7.50
2022-11-26T09:11:41.373Z,7.30
2022-11-26T09:14:09.717Z,7.80
2022-11-26T09:16:37.882Z,7.49
2022-11-26T09:19:07.291Z,7.56
2022-11-26T09:21:36.345Z,7.04
2022-11-26T09:24:04.847Z,7.19
2022-11-26T09:26:33.453Z,7.68
2022-11-26T09:29:03.216Z,7.57
2022-11-26T09:31:31.293Z,7.11
2022-11-26T09:34:00.211Z,7.04
2022-11-26T09:36:28.363Z,7.01
2022-11-26T09:38:56.347Z,7.00
2022-11-26T09:41:36.187Z,6.82
2022-11-26T09:44:22.137Z,6.90
2022-11-26T09:47:15.356Z,6.91
2022-11-26T09:49:56.239Z,6.70
2022-11-26T09:52:27.955Z,6.91
2022-11-26T09:55:04.008Z,7.00
2022-11-26T09:57:38.280Z,6.87
2022-11-26T10:00:22.458Z,6.87
2022-11-26T10:02:53.447Z,6.80
2022-11-26T10:05:24.039Z,6.82
2022-11-26T10:08:03.625Z,6.91
2022-11-26T10:10:37.915Z,7.05
2022-11-26T10:13:19.511Z,7.06
2022-11-26T10:15:59.241Z,6.83
2022-11-26T10:18:35.543Z,6.78
2022-11-26T10:21:27.416Z,6.80
2022-11-26T10:24:05.473Z,6.80
2022-11-26T10:26:37.047Z,6.85
2022-11-26T10:29:24.309Z,6.79
2022-11-26T10:31:59.744Z,6.74
2022-11-26T10:34:39.458Z,6.60
2022-11-26T10:37:07.841Z,6.43
2022-11-26T10:39:35.682Z,6.39
2022-11-26T10:42:05.857Z,6.36
2022-11-26T10:44:37.413Z,6.42
2022-11-26T10:47:28.692Z,6.26
2022-11-26T10:50:39.528Z,6.29
2022-11-26T10:53:06.113Z,6.39
2022-11-26T10:55:40.588Z,6.37
2022-11-26T10:58:17.277Z,6.45
2022-11-26T11:00:55.217Z,6.55
2022-11-26T11:03:59.333Z,6.61
2022-11-26T11:06:28.844Z,6.62
2022-11-26T11:08:56.949Z,6.67
2022-11-26T11:11:28.112Z,6.68
2022-11-26T11:13:56.829Z,6.74
2022-11-26T11:16:28.471Z,6.60
2022-11-26T11:18:59.169Z,6.55
2022-11-26T11:21:34.930Z,6.39
2022-11-26T11:24:14.314Z,6.19
2022-11-26T11:26:45.334Z,5.97
2022-11-26T11:29:34.076Z,5.86
2022-11-26T11:32:04.528Z,5.80
2022-11-26T11:34:38.249Z,5.86
2022-11-26T11:37:15.188Z,5.77
2022-11-26T11:39:44.383Z,5.83
2022-11-26T11:42:21.971Z,5.87
2022-11-26T11:44:52.460Z,5.89
2022-11-26T11:47:35.671Z,5.81
2022-11-26T11:50:17.876Z,5.87
2022-11-26T11:52:57.365Z,6.08
2022-11-26T11:55:37.553Z,6.19
2022-11-26T11:58:18.407Z,6.24
2022-11-26T12:00:53.452Z,6.31
2022-11-26T12:03:44.678Z,6.30
2022-11-26T12:06:24.060Z,6.38
2022-11-26T12:09:03.532Z,6.63
2022-11-26T12:11:43.287Z,6.62
2022-11-26T12:14:18.855Z,6.54
2022-11-26T12:16:51.115Z,6.53
2022-11-26T12:19:28.788Z,6.66
2022-11-26T12:22:06.910Z,6.85
2022-11-26T12:24:41.915Z,6.84
2022-11-26T12:27:21.788Z,6.83
2022-11-26T12:29:55.376Z,6.85
2022-11-26T12:32:31.907Z,6.87
2022-11-26T12:35:05.784Z,6.99
2022-11-26T12:37:40.615Z,7.16
2022-11-26T12:40:20.532Z,7.03
2022-11-26T12:42:59.022Z,6.97
2022-11-26T12:45:39.806Z,6.92
2022-11-26T12:48:19.368Z,6.79
2022-11-26T12:50:51.870Z,6.83
2022-11-26T12:53:32.886Z,6.76
2022-11-26T12:56:10.539Z,6.65
2022-11-26T12:58:45.709Z,6.68
2022-11-26T13:01:13.697Z,6.58
2022-11-26T13:03:42.930Z,6.55
2022-11-26T13:06:21.188Z,6.59
2022-11-26T13:08:59.938Z,6.73
2022-11-26T13:11:37.633Z,6.65
2022-11-26T13:14:13.936Z,6.73
2022-11-26T13:16:48.222Z,6.80
2022-11-26T13:19:23.843Z,6.89
2022-11-26T13:22:14.401Z,6.81
2022-11-26T13:25:00.986Z,6.85
2022-11-26T13:27:42.982Z,6.81
2022-11-26T13:30:18.359Z,6.87
2022-11-26T13:33:32.883Z,6.76
2022-11-26T13:36:35.907Z,6.84
2022-11-26T13:39:13.929Z,6.94
2022-11-26T13:42:05.039Z,7.24
2022-11-26T13:44:56.634Z,7.29
2022-11-26T13:47:30.102Z,7.40
2022-11-26T13:50:03.340Z,7.58
2022-11-26T13:52:36.176Z,7.68
2022-11-26T13:55:10.102Z,7.82
2022-11-26T13:57:43.013Z,7.87
2022-11-26T14:00:12.493Z,8.00
2022-11-26T14:02:44.501Z,7.35
2022-11-26T14:05:14.568Z,7.25
2022-11-26T14:07:42.673Z,7.06
2022-11-26T14:10:43.725Z,6.94
2022-11-26T14:13:15.760Z,6.81
2022-11-26T14:15:55.393Z,6.77
2022-11-26T14:19:05.973Z,6.80
2022-11-26T14:22:00.962Z,6.73
2022-11-26T14:24:57.421Z,6.59
2022-11-26T14:27:27.114Z,6.45
2022-11-26T14:30:01.189Z,6.30
2022-11-26T14:32:33.719Z,6.19
2022-11-26T14:35:01.524Z,6.09
2022-11-26T14:37:31.841Z,6.02
2022-11-26T14:40:00.925Z,5.94
2022-11-26T14:42:29.448Z,5.87
2022-11-26T14:45:06.605Z,5.78
2022-11-26T14:47:34.817Z,5.72
2022-11-26T14:50:05.774Z,5.58
2022-11-26T14:52:35.849Z,5.53
2022-11-26T14:55:07.546Z,5.47
2022-11-26T14:57:47.178Z,5.35
2022-11-26T15:00:25.860Z,5.31
2022-11-26T15:02:54.298Z,5.29
2022-11-26T15:05:24.937Z,5.25
2022-11-26T15:08:02.408Z,5.23
2022-11-26T15:10:33.971Z,5.09
2022-11-26T15:13:06.958Z,5.00
2022-11-26T15:15:36.187Z,4.94
2022-11-26T15:18:06.642Z,4.86
2022-11-26T15:20:34.868Z,4.78
2022-11-26T15:23:06.673Z,4.78
2022-11-26T15:25:37.254Z,4.67
2022-11-26T15:28:07.273Z,4.58
2022-11-26T15:30:38.449Z,4.42
2022-11-26T15:33:15.066Z,4.27
2022-11-26T15:35:43.793Z,4.23
2022-11-26T15:38:15.461Z,4.15
2022-11-26T15:40:48.428Z,4.11
2022-11-26T15:43:23.583Z,4.01
2022-11-26T15:45:54.249Z,3.86
2022-11-26T15:48:44.075Z,3.81
2022-11-26T15:51:22.521Z,3.69
2022-11-26T15:53:51.633Z,3.65
2022-11-26T15:56:21.974Z,3.60
2022-11-26T15:58:55.036Z,3.59
2022-11-26T16:01:27.190Z,3.55
2022-11-26T16:03:56.500Z,3.59
2022-11-26T16:06:34.356Z,3.56
2022-11-26T16:09:07.154Z,3.60
2022-11-26T16:11:37.884Z,3.65
2022-11-26T16:14:29.477Z,3.62
2022-11-26T16:17:03.778Z,3.63
2022-11-26T16:19:34.415Z,3.63
2022-11-26T16:22:04.831Z,3.65
2022-11-26T16:24:38.647Z,3.61
2022-11-26T16:27:08.639Z,3.55
2022-11-26T16:29:36.845Z,3.53
2022-11-26T16:32:06.071Z,3.56
2022-11-26T16:34:33.829Z,3.54
2022-11-26T16:37:17.604Z,3.48
2022-11-26T16:39:45.456Z,3.45
2022-11-26T16:42:18.224Z,3.45
2022-11-26T16:44:45.987Z,3.42
2022-11-26T16:47:20.843Z,3.42
2022-11-26T16:49:48.661Z,3.36
2022-11-26T16:52:18.691Z,3.29
2022-11-26T16:54:46.711Z,3.27
2022-11-26T16:57:16.937Z,3.29
2022-11-26T16:59:46.576Z,3.26
2022-11-26T17:02:18.157Z,3.24
2022-11-26T17:04:46.411Z,3.19
2022-11-26T17:07:15.340Z,3.18
2022-11-26T17:09:43.758Z,3.15
2022-11-26T17:12:17.084Z,3.09
2022-11-26T17:14:47.216Z,3.08
2022-11-26T17:17:20.605Z,3.06
2022-11-26T17:19:51.742Z,3.04
2022-11-26T17:22:20.242Z,3.05
2022-11-26T17:24:48.071Z,3.06
2022-11-26T17:27:17.990Z,3.06
2022-11-26T17:29:54.591Z,3.00
2022-11-26T17:32:23.742Z,3.01
2022-11-26T17:34:51.557Z,2.98
2022-11-26T17:37:24.787Z,2.86
2022-11-26T17:39:52.978Z,2.83
2022-11-26T17:42:23.729Z,2.78
2022-11-26T17:44:53.008Z,2.73
2022-11-26T17:47:23.842Z,2.67
2022-11-26T17:49:52.495Z,2.67
2022-11-26T17:52:20.638Z,2.69
2022-11-26T17:54:48.558Z,2.69
2022-11-26T17:57:17.887Z,2.65
2022-11-26T17:59:45.869Z,2.62
2022-11-26T18:02:13.743Z,2.45
2022-11-26T18:04:42.994Z,2.26
2022-11-26T18:07:14.815Z,2.20
2022-11-26T18:09:43.214Z,2.12
2022-11-26T18:12:23.149Z,2.13
2022-11-26T18:14:52.772Z,2.08
2022-11-26T18:17:20.655Z,1.86
2022-11-26T18:19:50.976Z,1.63
2022-11-26T18:22:22.565Z,1.48
2022-11-26T18:24:56.397Z,1.40
2022-11-26T18:27:27.209Z,1.43
2022-11-26T18:29:55.554Z,1.59
2022-11-26T18:32:23.487Z,1.53
2022-11-26T18:34:52.863Z,1.55
2022-11-26T18:37:20.619Z,1.53
2022-11-26T18:39:48.529Z,1.54
2022-11-26T18:42:35.990Z,1.54
2022-11-26T18:45:04.513Z,1.53
2022-11-26T18:47:32.385Z,1.48
2022-11-26T18:50:01.515Z,1.38
2022-11-26T18:52:29.411Z,1.36
2022-11-26T18:54:57.301Z,1.36
2022-11-26T18:57:25.156Z,1.33
2022-11-26T18:59:52.982Z,1.31
2022-11-26T19:02:20.869Z,1.25
2022-11-26T19:04:48.912Z,1.25
2022-11-26T19:07:18.148Z,1.24
2022-11-26T19:09:46.115Z,1.23
2022-11-26T19:12:14.191Z,1.23
2022-11-26T19:14:42.017Z,1.20
2022-11-26T19:17:09.869Z,1.18
2022-11-26T19:19:39.208Z,1.16
2022-11-26T19:22:07.359Z,1.16
2022-11-26T19:24:36.690Z,1.10
2022-11-26T19:27:04.521Z,1.00
2022-11-26T19:29:32.328Z,0.99
2022-11-26T19:32:00.088Z,0.99
2022-11-26T19:34:27.901Z,1.00
2022-11-26T19:36:57.748Z,1.03
2022-11-26T19:39:25.787Z,1.10
2022-11-26T19:41:55.319Z,1.16
2022-11-26T19:44:23.230Z,1.16
2022-11-26T19:46:51.153Z,0.91
2022-11-26T19:49:18.909Z,0.81
2022-11-26T19:51:46.768Z,0.79
2022-11-26T19:54:14.640Z,0.83
2022-11-26T19:56:43.034Z,0.82
2022-11-26T19:59:12.481Z,0.82
2022-11-26T20:01:40.288Z,0.88
2022-11-26T20:04:12.289Z,0.92
2022-11-26T20:06:40.133Z,0.96
2022-11-26T20:09:09.467Z,0.93
2022-11-26T20:11:39.331Z,0.96
2022-11-26T20:14:10.596Z,1.09
2022-11-26T20:16:41.841Z,1.20
2022-11-26T20:19:11.804Z,1.20
2022-11-26T20:21:40.204Z,1.19
2022-11-26T20:24:11.871Z,1.20
2022-11-26T20:26:41.709Z,1.19
2022-11-26T20:29:11.840Z,1.29
2022-11-26T20:31:45.227Z,1.33
2022-11-26T20:34:14.295Z,1.32
2022-11-26T20:36:42.097Z,1.32
2022-11-26T20:39:14.078Z,1.30
2022-11-26T20:41:41.826Z,1.25
2022-11-26T20:44:10.125Z,1.27
2022-11-26T20:46:38.002Z,1.19
2022-11-26T20:49:08.190Z,1.15
2022-11-26T20:51:36.054Z,1.09
2022-11-26T20:54:04.014Z,1.11
2022-11-26T20:56:31.957Z,1.07
2022-11-26T20:58:59.759Z,1.00
2022-11-26T21:01:29.457Z,0.87
2022-11-26T21:03:58.192Z,0.85
2022-11-26T21:06:30.357Z,0.84
2022-11-26T21:09:01.481Z,0.88
2022-11-26T21:11:30.163Z,0.83
2022-11-26T21:13:59.738Z,1.00
2022-11-26T21:16:28.443Z,1.15
2022-11-26T21:18:56.439Z,1.12
2022-11-26T21:21:26.265Z,1.08
2022-11-26T21:23:55.809Z,1.07
2022-11-26T21:26:25.311Z,1.08
2022-11-26T21:28:53.731Z,1.08
2022-11-26T21:31:22.274Z,1.10
2022-11-26T21:33:55.673Z,1.10
2022-11-26T21:36:24.791Z,1.07
2022-11-26T21:38:52.849Z,1.04
2022-11-26T21:41:22.728Z,0.99
2022-11-26T21:43:51.713Z,0.93
2022-11-26T21:46:21.348Z,0.93
2022-11-26T21:48:49.300Z,0.79
2022-11-26T21:51:19.072Z,0.86
2022-11-26T21:53:49.494Z,0.82
2022-11-26T21:56:19.613Z,0.77
2022-11-26T21:58:49.474Z,0.83
2022-11-26T22:01:20.220Z,0.84
2022-11-26T22:03:50.534Z,0.71
2022-11-26T22:06:19.507Z,0.68
2022-11-26T22:08:48.372Z,0.71
2022-11-26T22:11:17.811Z,0.67
2022-11-26T22:13:46.177Z,0.63
2022-11-26T22:16:17.310Z,0.58
2022-11-26T22:18:46.301Z,0.53
2022-11-26T22:21:15.994Z,0.59
2022-11-26T22:23:44.947Z,0.59
2022-11-26T22:26:13.318Z,0.55
2022-11-26T22:28:41.506Z,0.58
2022-11-26T22:31:11.465Z,0.54
2022-11-26T22:33:40.952Z,0.53
2022-11-26T22:36:09.636Z,0.62
2022-11-26T22:38:39.463Z,0.63
2022-11-26T22:41:08.926Z,0.59
2022-11-26T22:43:37.704Z,0.65
2022-11-26T22:46:06.979Z,0.62
2022-11-26T22:48:35.310Z,0.58
2022-11-26T22:51:05.209Z,0.49
2022-11-26T22:53:34.301Z,0.45
2022-11-26T22:56:03.899Z,0.42
2022-11-26T22:58:33.862Z,0.40
2022-11-26T23:01:04.169Z,0.37
2022-11-26T23:03:34.530Z,0.41
2022-11-26T23:06:09.035Z,0.39
2022-11-26T23:08:37.583Z,0.37
2022-11-26T23:11:16.779Z,0.32
2022-11-26T23:13:46.466Z,0.33
2022-11-26T23:16:15.430Z,0.36
2022-11-26T23:18:43.415Z,0.34
2022-11-26T23:21:15.748Z,0.40
2022-11-26T23:23:44.338Z,0.41
2022-11-26T23:26:20.396Z,0.42
2022-11-26T23:28:51.320Z,0.49
2022-11-26T23:31:20.820Z,0.46
2022-11-26T23:33:50.859Z,0.46
2022-11-26T23:36:20.840Z,0.46
2022-11-26T23:38:49.025Z,0.44
2022-11-26T23:41:17.428Z,0.46
2022-11-26T23:43:46.792Z,0.42
2022-11-26T23:46:17.193Z,0.44
2022-11-26T23:48:45.789Z,0.42
2022-11-26T23:51:15.831Z,0.34
2022-11-26T23:53:46.899Z,0.32
2022-11-26T23:56:18.474Z,0.32
2022-11-26T23:58:49.557Z,0.43
